sensor_id;sensor_type;location;lat;lon;timestamp;P1;durP1;ratioP1;P2;durP2;ratioP2
20040;SDS011;10181;48.072;9.884;2023-05-21T00:02:02;7.93;;;6.83;;
20040;SDS011;10181;48.072;9.884;2023-05-21T00:04:28;6.50;;;6.00;;
20040;SDS011;10181;48.072;9.884;2023-05-21T00:06:55;5.93;;;5.53;;
20040;SDS011;10181;48.072;9.884;2023-05-21T00:09:22;6.73;;;6.23;;
20040;SDS011;10181;48.072;9.884;2023-05-21T00:11:48;6.13;;;5.63;;
20040;SDS011;10181;48.072;9.884;2023-05-21T00:14:14;6.50;;;5.87;;
20040;SDS011;10181;48.072;9.884;2023-05-21T00:16:40;7.27;;;6.67;;
20040;SDS011;10181;48.072;9.884;2023-05-21T00:19:05;7.57;;;6.83;;
20040;SDS011;10181;48.072;9.884;2023-05-21T00:21:32;9.03;;;7.77;;
20040;SDS011;10181;48.072;9.884;2023-05-21T00:23:57;8.10;;;7.20;;
20040;SDS011;10181;48.072;9.884;2023-05-21T00:26:23;6.50;;;5.93;;
20040;SDS011;10181;48.072;9.884;2023-05-21T00:28:49;6.57;;;5.97;;
20040;SDS011;10181;48.072;9.884;2023-05-21T00:31:15;7.17;;;6.57;;
20040;SDS011;10181;48.072;9.884;2023-05-21T00:33:41;6.20;;;5.70;;
20040;SDS011;10181;48.072;9.884;2023-05-21T00:36:07;6.87;;;6.27;;
20040;SDS011;10181;48.072;9.884;2023-05-21T00:38:33;6.27;;;5.77;;
20040;SDS011;10181;48.072;9.884;2023-05-21T00:41:00;7.13;;;6.43;;
20040;SDS011;10181;48.072;9.884;2023-05-21T00:43:26;6.63;;;6.10;;
20040;SDS011;10181;48.072;9.884;2023-05-21T00:45:52;9.00;;;8.10;;
20040;SDS011;10181;48.072;9.884;2023-05-21T00:48:20;8.03;;;7.33;;
20040;SDS011;10181;48.072;9.884;2023-05-21T00:50:46;8.00;;;7.20;;
20040;SDS011;10181;48.072;9.884;2023-05-21T00:53:13;7.40;;;6.80;;
20040;SDS011;10181;48.072;9.884;2023-05-21T00:55:42;9.90;;;7.90;;
20040;SDS011;10181;48.072;9.884;2023-05-21T00:58:07;7.87;;;7.17;;
20040;SDS011;10181;48.072;9.884;2023-05-21T01:00:34;9.13;;;8.23;;
20040;SDS011;10181;48.072;9.884;2023-05-21T01:03:01;8.00;;;7.30;;
20040;SDS011;10181;48.072;9.884;2023-05-21T01:05:27;8.27;;;7.63;;
20040;SDS011;10181;48.072;9.884;2023-05-21T01:07:54;8.77;;;7.97;;
20040;SDS011;10181;48.072;9.884;2023-05-21T01:10:22;9.23;;;8.43;;
20040;SDS011;10181;48.072;9.884;2023-05-21T01:12:48;8.37;;;7.77;;
20040;SDS011;10181;48.072;9.884;2023-05-21T01:15:16;8.77;;;8.07;;
20040;SDS011;10181;48.072;9.884;2023-05-21T01:17:42;8.83;;;8.00;;
20040;SDS011;10181;48.072;9.884;2023-05-21T01:20:10;9.20;;;8.40;;
20040;SDS011;10181;48.072;9.884;2023-05-21T01:22:49;9.50;;;8.73;;
20040;SDS011;10181;48.072;9.884;2023-05-21T01:25:15;9.67;;;8.87;;
20040;SDS011;10181;48.072;9.884;2023-05-21T01:27:41;10.60;;;9.70;;
20040;SDS011;10181;48.072;9.884;2023-05-21T01:30:07;9.60;;;8.90;;
20040;SDS011;10181;48.072;9.884;2023-05-21T01:35:12;10.63;;;9.63;;
20040;SDS011;10181;48.072;9.884;2023-05-21T01:37:43;9.87;;;8.97;;
20040;SDS011;10181;48.072;9.884;2023-05-21T01:42:58;9.63;;;8.63;;
20040;SDS011;10181;48.072;9.884;2023-05-21T01:45:24;9.23;;;8.43;;
20040;SDS011;10181;48.072;9.884;2023-05-21T01:47:52;9.10;;;8.20;;
20040;SDS011;10181;48.072;9.884;2023-05-21T01:50:19;9.70;;;8.90;;
20040;SDS011;10181;48.072;9.884;2023-05-21T01:52:48;9.93;;;9.13;;
20040;SDS011;10181;48.072;9.884;2023-05-21T01:55:17;11.37;;;10.27;;
20040;SDS011;10181;48.072;9.884;2023-05-21T01:57:48;11.07;;;10.07;;
20040;SDS011;10181;48.072;9.884;2023-05-21T02:00:15;10.73;;;9.93;;
20040;SDS011;10181;48.072;9.884;2023-05-21T02:02:41;11.73;;;10.93;;
20040;SDS011;10181;48.072;9.884;2023-05-21T02:05:07;11.80;;;11.10;;
20040;SDS011;10181;48.072;9.884;2023-05-21T02:07:32;13.40;;;12.33;;
20040;SDS011;10181;48.072;9.884;2023-05-21T02:09:58;15.50;;;14.37;;
20040;SDS011;10181;48.072;9.884;2023-05-21T02:12:24;15.27;;;14.27;;
20040;SDS011;10181;48.072;9.884;2023-05-21T02:14:49;14.60;;;13.60;;
20040;SDS011;10181;48.072;9.884;2023-05-21T02:17:15;16.70;;;15.63;;
20040;SDS011;10181;48.072;9.884;2023-05-21T02:19:41;15.73;;;14.73;;
20040;SDS011;10181;48.072;9.884;2023-05-21T02:22:09;18.83;;;17.43;;
20040;SDS011;10181;48.072;9.884;2023-05-21T02:24:35;18.10;;;17.00;;
20040;SDS011;10181;48.072;9.884;2023-05-21T02:27:00;19.07;;;17.67;;
20040;SDS011;10181;48.072;9.884;2023-05-21T02:29:27;19.27;;;18.07;;
20040;SDS011;10181;48.072;9.884;2023-05-21T02:31:52;22.03;;;20.70;;
20040;SDS011;10181;48.072;9.884;2023-05-21T02:34:18;23.03;;;21.63;;
20040;SDS011;10181;48.072;9.884;2023-05-21T02:36:48;23.33;;;21.83;;
20040;SDS011;10181;48.072;9.884;2023-05-21T02:39:18;22.80;;;21.33;;
20040;SDS011;10181;48.072;9.884;2023-05-21T02:41:44;21.53;;;19.87;;
20040;SDS011;10181;48.072;9.884;2023-05-21T02:44:11;22.40;;;21.03;;
20040;SDS011;10181;48.072;9.884;2023-05-21T02:46:37;21.03;;;19.73;;
20040;SDS011;10181;48.072;9.884;2023-05-21T02:49:03;19.63;;;18.43;;
20040;SDS011;10181;48.072;9.884;2023-05-21T02:51:28;18.33;;;17.17;;
20040;SDS011;10181;48.072;9.884;2023-05-21T02:53:54;18.07;;;16.83;;
20040;SDS011;10181;48.072;9.884;2023-05-21T02:56:20;16.10;;;15.00;;
20040;SDS011;10181;48.072;9.884;2023-05-21T02:58:45;16.17;;;15.07;;
20040;SDS011;10181;48.072;9.884;2023-05-21T03:01:11;20.20;;;18.93;;
20040;SDS011;10181;48.072;9.884;2023-05-21T03:03:36;18.47;;;17.17;;
20040;SDS011;10181;48.072;9.884;2023-05-21T03:06:02;17.03;;;15.67;;
20040;SDS011;10181;48.072;9.884;2023-05-21T03:08:27;14.03;;;13.10;;
20040;SDS011;10181;48.072;9.884;2023-05-21T03:10:53;14.00;;;12.93;;
20040;SDS011;10181;48.072;9.884;2023-05-21T03:13:19;12.97;;;11.87;;
20040;SDS011;10181;48.072;9.884;2023-05-21T03:15:45;10.00;;;9.20;;
20040;SDS011;10181;48.072;9.884;2023-05-21T03:18:11;12.13;;;11.13;;
20040;SDS011;10181;48.072;9.884;2023-05-21T03:20:37;10.00;;;9.27;;
20040;SDS011;10181;48.072;9.884;2023-05-21T03:23:07;9.60;;;8.80;;
20040;SDS011;10181;48.072;9.884;2023-05-21T03:25:33;9.93;;;9.13;;
20040;SDS011;10181;48.072;9.884;2023-05-21T03:28:00;9.23;;;8.53;;
20040;SDS011;10181;48.072;9.884;2023-05-21T03:30:26;10.73;;;9.73;;
20040;SDS011;10181;48.072;9.884;2023-05-21T03:32:51;9.90;;;9.03;;
20040;SDS011;10181;48.072;9.884;2023-05-21T03:35:17;8.30;;;7.70;;
20040;SDS011;10181;48.072;9.884;2023-05-21T03:37:43;9.13;;;8.40;;
20040;SDS011;10181;48.072;9.884;2023-05-21T03:40:09;12.13;;;9.43;;
20040;SDS011;10181;48.072;9.884;2023-05-21T03:42:34;10.13;;;9.30;;
20040;SDS011;10181;48.072;9.884;2023-05-21T03:45:00;10.53;;;9.60;;
20040;SDS011;10181;48.072;9.884;2023-05-21T03:47:27;9.23;;;8.53;;
20040;SDS011;10181;48.072;9.884;2023-05-21T03:49:52;12.17;;;10.67;;
20040;SDS011;10181;48.072;9.884;2023-05-21T03:52:18;10.10;;;9.30;;
20040;SDS011;10181;48.072;9.884;2023-05-21T03:54:43;9.37;;;8.47;;
20040;SDS011;10181;48.072;9.884;2023-05-21T03:57:09;9.00;;;8.30;;
20040;SDS011;10181;48.072;9.884;2023-05-21T03:59:34;11.33;;;10.13;;
20040;SDS011;10181;48.072;9.884;2023-05-21T04:02:00;9.20;;;8.40;;
20040;SDS011;10181;48.072;9.884;2023-05-21T04:04:26;8.60;;;7.90;;
20040;SDS011;10181;48.072;9.884;2023-05-21T04:06:53;9.23;;;8.43;;
20040;SDS011;10181;48.072;9.884;2023-05-21T04:09:19;8.60;;;7.90;;
20040;SDS011;10181;48.072;9.884;2023-05-21T04:11:45;10.23;;;8.93;;
20040;SDS011;10181;48.072;9.884;2023-05-21T04:14:11;9.23;;;8.43;;
20040;SDS011;10181;48.072;9.884;2023-05-21T04:16:37;9.00;;;8.40;;
20040;SDS011;10181;48.072;9.884;2023-05-21T04:19:03;9.97;;;9.17;;
20040;SDS011;10181;48.072;9.884;2023-05-21T04:21:29;10.40;;;9.60;;
20040;SDS011;10181;48.072;9.884;2023-05-21T04:23:56;11.57;;;10.57;;
20040;SDS011;10181;48.072;9.884;2023-05-21T04:26:22;12.57;;;11.67;;
20040;SDS011;10181;48.072;9.884;2023-05-21T04:28:49;11.43;;;10.63;;
20040;SDS011;10181;48.072;9.884;2023-05-21T04:31:15;11.53;;;10.67;;
20040;SDS011;10181;48.072;9.884;2023-05-21T04:33:41;11.97;;;11.20;;
20040;SDS011;10181;48.072;9.884;2023-05-21T04:36:09;15.07;;;13.77;;
20040;SDS011;10181;48.072;9.884;2023-05-21T04:38:35;15.07;;;13.87;;
20040;SDS011;10181;48.072;9.884;2023-05-21T04:41:01;14.80;;;13.80;;
20040;SDS011;10181;48.072;9.884;2023-05-21T04:43:30;14.23;;;13.13;;
20040;SDS011;10181;48.072;9.884;2023-05-21T04:45:56;14.20;;;13.20;;
20040;SDS011;10181;48.072;9.884;2023-05-21T04:48:22;14.57;;;13.47;;
20040;SDS011;10181;48.072;9.884;2023-05-21T04:50:48;15.93;;;14.87;;
20040;SDS011;10181;48.072;9.884;2023-05-21T04:53:15;17.77;;;16.57;;
20040;SDS011;10181;48.072;9.884;2023-05-21T04:55:41;18.07;;;16.73;;
20040;SDS011;10181;48.072;9.884;2023-05-21T04:58:07;15.73;;;14.63;;
20040;SDS011;10181;48.072;9.884;2023-05-21T05:00:35;13.93;;;12.90;;
20040;SDS011;10181;48.072;9.884;2023-05-21T05:03:01;13.97;;;12.90;;
20040;SDS011;10181;48.072;9.884;2023-05-21T05:05:27;14.30;;;13.30;;
20040;SDS011;10181;48.072;9.884;2023-05-21T05:07:53;17.20;;;16.00;;
20040;SDS011;10181;48.072;9.884;2023-05-21T05:10:20;16.90;;;15.60;;
20040;SDS011;10181;48.072;9.884;2023-05-21T05:12:45;16.97;;;15.57;;
20040;SDS011;10181;48.072;9.884;2023-05-21T05:15:12;17.67;;;16.17;;
20040;SDS011;10181;48.072;9.884;2023-05-21T05:17:37;15.50;;;14.37;;
20040;SDS011;10181;48.072;9.884;2023-05-21T05:20:04;16.30;;;14.90;;
20040;SDS011;10181;48.072;9.884;2023-05-21T05:22:31;16.20;;;14.93;;
20040;SDS011;10181;48.072;9.884;2023-05-21T05:24:57;17.13;;;15.73;;
20040;SDS011;10181;48.072;9.884;2023-05-21T05:27:22;16.30;;;15.10;;
20040;SDS011;10181;48.072;9.884;2023-05-21T05:29:48;16.33;;;14.93;;
20040;SDS011;10181;48.072;9.884;2023-05-21T05:32:13;19.23;;;17.33;;
20040;SDS011;10181;48.072;9.884;2023-05-21T05:34:39;20.43;;;18.63;;
20040;SDS011;10181;48.072;9.884;2023-05-21T05:37:06;21.43;;;19.33;;
20040;SDS011;10181;48.072;9.884;2023-05-21T05:39:32;18.53;;;17.03;;
20040;SDS011;10181;48.072;9.884;2023-05-21T05:41:57;19.27;;;17.43;;
20040;SDS011;10181;48.072;9.884;2023-05-21T05:44:23;18.70;;;17.30;;
20040;SDS011;10181;48.072;9.884;2023-05-21T05:46:49;20.43;;;18.50;;
20040;SDS011;10181;48.072;9.884;2023-05-21T05:49:14;24.60;;;22.13;;
20040;SDS011;10181;48.072;9.884;2023-05-21T05:51:40;21.83;;;19.77;;
20040;SDS011;10181;48.072;9.884;2023-05-21T05:54:06;20.20;;;18.20;;
20040;SDS011;10181;48.072;9.884;2023-05-21T05:56:32;18.97;;;17.07;;
20040;SDS011;10181;48.072;9.884;2023-05-21T05:58:57;17.70;;;16.07;;
20040;SDS011;10181;48.072;9.884;2023-05-21T06:01:23;16.30;;;14.80;;
20040;SDS011;10181;48.072;9.884;2023-05-21T06:03:50;19.07;;;17.23;;
20040;SDS011;10181;48.072;9.884;2023-05-21T06:06:16;19.90;;;18.00;;
20040;SDS011;10181;48.072;9.884;2023-05-21T06:08:43;17.23;;;15.43;;
20040;SDS011;10181;48.072;9.884;2023-05-21T06:11:14;19.03;;;17.13;;
20040;SDS011;10181;48.072;9.884;2023-05-21T06:13:43;20.50;;;18.50;;
20040;SDS011;10181;48.072;9.884;2023-05-21T06:16:09;25.00;;;22.43;;
20040;SDS011;10181;48.072;9.884;2023-05-21T06:18:35;21.40;;;19.27;;
20040;SDS011;10181;48.072;9.884;2023-05-21T06:21:01;21.90;;;19.30;;
20040;SDS011;10181;48.072;9.884;2023-05-21T06:23:27;23.80;;;20.10;;
20040;SDS011;10181;48.072;9.884;2023-05-21T06:25:52;21.37;;;17.97;;
20040;SDS011;10181;48.072;9.884;2023-05-21T06:28:18;19.50;;;17.30;;
20040;SDS011;10181;48.072;9.884;2023-05-21T06:30:44;20.70;;;16.97;;
20040;SDS011;10181;48.072;9.884;2023-05-21T06:33:10;17.43;;;15.73;;
20040;SDS011;10181;48.072;9.884;2023-05-21T06:35:36;18.90;;;15.57;;
20040;SDS011;10181;48.072;9.884;2023-05-21T06:38:03;16.60;;;14.70;;
20040;SDS011;10181;48.072;9.884;2023-05-21T06:40:29;16.43;;;14.70;;
20040;SDS011;10181;48.072;9.884;2023-05-21T06:42:55;18.00;;;15.50;;
20040;SDS011;10181;48.072;9.884;2023-05-21T06:45:20;15.77;;;14.17;;
20040;SDS011;10181;48.072;9.884;2023-05-21T06:47:46;17.67;;;14.60;;
20040;SDS011;10181;48.072;9.884;2023-05-21T06:50:11;18.50;;;16.50;;
20040;SDS011;10181;48.072;9.884;2023-05-21T06:52:37;19.00;;;17.13;;
20040;SDS011;10181;48.072;9.884;2023-05-21T06:55:03;19.20;;;17.23;;
20040;SDS011;10181;48.072;9.884;2023-05-21T06:57:28;19.30;;;17.30;;
20040;SDS011;10181;48.072;9.884;2023-05-21T06:59:54;18.30;;;16.60;;
20040;SDS011;10181;48.072;9.884;2023-05-21T07:02:20;23.00;;;17.43;;
20040;SDS011;10181;48.072;9.884;2023-05-21T07:04:45;18.73;;;17.03;;
20040;SDS011;10181;48.072;9.884;2023-05-21T07:07:11;19.40;;;17.50;;
20040;SDS011;10181;48.072;9.884;2023-05-21T07:09:37;19.07;;;17.17;;
20040;SDS011;10181;48.072;9.884;2023-05-21T07:12:02;16.80;;;15.07;;
20040;SDS011;10181;48.072;9.884;2023-05-21T07:14:28;18.53;;;16.70;;
20040;SDS011;10181;48.072;9.884;2023-05-21T07:16:53;16.80;;;15.07;;
20040;SDS011;10181;48.072;9.884;2023-05-21T07:19:19;17.30;;;15.57;;
20040;SDS011;10181;48.072;9.884;2023-05-21T07:21:45;15.93;;;14.43;;
20040;SDS011;10181;48.072;9.884;2023-05-21T07:24:11;19.33;;;17.30;;
20040;SDS011;10181;48.072;9.884;2023-05-21T07:26:36;16.80;;;15.17;;
20040;SDS011;10181;48.072;9.884;2023-05-21T07:29:02;16.83;;;15.23;;
20040;SDS011;10181;48.072;9.884;2023-05-21T07:31:28;17.30;;;15.67;;
20040;SDS011;10181;48.072;9.884;2023-05-21T07:33:53;18.17;;;16.27;;
20040;SDS011;10181;48.072;9.884;2023-05-21T07:36:19;19.27;;;17.40;;
20040;SDS011;10181;48.072;9.884;2023-05-21T07:38:45;19.03;;;17.23;;
20040;SDS011;10181;48.072;9.884;2023-05-21T07:41:10;18.40;;;16.60;;
20040;SDS011;10181;48.072;9.884;2023-05-21T07:43:36;18.20;;;16.30;;
20040;SDS011;10181;48.072;9.884;2023-05-21T07:46:02;21.37;;;16.50;;
20040;SDS011;10181;48.072;9.884;2023-05-21T07:48:28;18.37;;;16.43;;
20040;SDS011;10181;48.072;9.884;2023-05-21T07:50:53;18.73;;;16.50;;
20040;SDS011;10181;48.072;9.884;2023-05-21T07:53:20;16.40;;;14.93;;
20040;SDS011;10181;48.072;9.884;2023-05-21T07:55:46;16.23;;;14.53;;
20040;SDS011;10181;48.072;9.884;2023-05-21T07:58:15;18.43;;;16.03;;
20040;SDS011;10181;48.072;9.884;2023-05-21T08:00:42;18.87;;;16.83;;
20040;SDS011;10181;48.072;9.884;2023-05-21T08:03:11;18.37;;;16.47;;
20040;SDS011;10181;48.072;9.884;2023-05-21T08:05:40;17.80;;;15.83;;
20040;SDS011;10181;48.072;9.884;2023-05-21T08:08:16;15.27;;;13.87;;
20040;SDS011;10181;48.072;9.884;2023-05-21T08:10:45;17.00;;;14.87;;
20040;SDS011;10181;48.072;9.884;2023-05-21T08:13:14;18.40;;;16.30;;
20040;SDS011;10181;48.072;9.884;2023-05-21T08:15:40;16.07;;;14.57;;
20040;SDS011;10181;48.072;9.884;2023-05-21T08:18:06;18.40;;;16.60;;
20040;SDS011;10181;48.072;9.884;2023-05-21T08:20:32;14.73;;;13.33;;
20040;SDS011;10181;48.072;9.884;2023-05-21T08:22:58;15.03;;;13.53;;
20040;SDS011;10181;48.072;9.884;2023-05-21T08:25:24;14.50;;;13.17;;
20040;SDS011;10181;48.072;9.884;2023-05-21T08:27:53;16.10;;;14.50;;
20040;SDS011;10181;48.072;9.884;2023-05-21T08:30:19;15.67;;;13.67;;
20040;SDS011;10181;48.072;9.884;2023-05-21T08:32:45;20.70;;;18.80;;
20040;SDS011;10181;48.072;9.884;2023-05-21T08:35:11;14.90;;;13.50;;
20040;SDS011;10181;48.072;9.884;2023-05-21T08:37:37;20.57;;;18.60;;
20040;SDS011;10181;48.072;9.884;2023-05-21T08:40:03;18.67;;;17.07;;
20040;SDS011;10181;48.072;9.884;2023-05-21T08:42:46;18.17;;;16.40;;
20040;SDS011;10181;48.072;9.884;2023-05-21T08:45:13;17.10;;;15.40;;
20040;SDS011;10181;48.072;9.884;2023-05-21T08:47:43;18.80;;;16.93;;
20040;SDS011;10181;48.072;9.884;2023-05-21T08:50:11;16.17;;;14.77;;
20040;SDS011;10181;48.072;9.884;2023-05-21T08:52:38;15.83;;;14.33;;
20040;SDS011;10181;48.072;9.884;2023-05-21T08:55:04;16.67;;;15.17;;
20040;SDS011;10181;48.072;9.884;2023-05-21T08:57:31;15.47;;;14.07;;
20040;SDS011;10181;48.072;9.884;2023-05-21T08:59:57;16.33;;;14.83;;
20040;SDS011;10181;48.072;9.884;2023-05-21T09:02:23;15.80;;;14.30;;
20040;SDS011;10181;48.072;9.884;2023-05-21T09:04:52;16.33;;;14.67;;
20040;SDS011;10181;48.072;9.884;2023-05-21T09:07:21;18.67;;;16.97;;
20040;SDS011;10181;48.072;9.884;2023-05-21T09:09:58;21.07;;;19.17;;
20040;SDS011;10181;48.072;9.884;2023-05-21T09:12:26;18.80;;;17.20;;
20040;SDS011;10181;48.072;9.884;2023-05-21T09:14:52;19.20;;;17.53;;
20040;SDS011;10181;48.072;9.884;2023-05-21T09:17:18;14.40;;;13.13;;
20040;SDS011;10181;48.072;9.884;2023-05-21T09:22:31;14.60;;;13.20;;
20040;SDS011;10181;48.072;9.884;2023-05-21T09:24:57;13.27;;;12.00;;
20040;SDS011;10181;48.072;9.884;2023-05-21T09:27:23;13.90;;;12.70;;
20040;SDS011;10181;48.072;9.884;2023-05-21T09:29:50;18.20;;;16.63;;
20040;SDS011;10181;48.072;9.884;2023-05-21T09:32:16;17.47;;;15.87;;
20040;SDS011;10181;48.072;9.884;2023-05-21T09:34:41;16.88;;;15.20;;
20040;SDS011;10181;48.072;9.884;2023-05-21T09:37:07;16.55;;;15.15;;
20040;SDS011;10181;48.072;9.884;2023-05-21T09:39:33;17.13;;;15.63;;
20040;SDS011;10181;48.072;9.884;2023-05-21T09:41:59;16.40;;;14.95;;
20040;SDS011;10181;48.072;9.884;2023-05-21T09:44:26;15.95;;;14.50;;
20040;SDS011;10181;48.072;9.884;2023-05-21T09:46:55;16.05;;;14.55;;
20040;SDS011;10181;48.072;9.884;2023-05-21T09:49:24;13.48;;;12.18;;
20040;SDS011;10181;48.072;9.884;2023-05-21T09:51:58;13.93;;;12.55;;
20040;SDS011;10181;48.072;9.884;2023-05-21T09:54:24;13.75;;;12.60;;
20040;SDS011;10181;48.072;9.884;2023-05-21T09:56:55;13.15;;;11.85;;
20040;SDS011;10181;48.072;9.884;2023-05-21T09:59:20;14.25;;;12.85;;
20040;SDS011;10181;48.072;9.884;2023-05-21T10:01:48;13.15;;;11.95;;
20040;SDS011;10181;48.072;9.884;2023-05-21T10:04:16;13.90;;;12.55;;
20040;SDS011;10181;48.072;9.884;2023-05-21T10:06:42;13.32;;;12.02;;
20040;SDS011;10181;48.072;9.884;2023-05-21T10:09:11;15.45;;;14.05;;
20040;SDS011;10181;48.072;9.884;2023-05-21T10:11:42;15.65;;;14.18;;
20040;SDS011;10181;48.072;9.884;2023-05-21T10:14:13;12.57;;;11.48;;
20040;SDS011;10181;48.072;9.884;2023-05-21T10:16:43;14.32;;;12.93;;
20040;SDS011;10181;48.072;9.884;2023-05-21T10:19:10;16.65;;;15.18;;
20040;SDS011;10181;48.072;9.884;2023-05-21T10:21:38;15.43;;;14.23;;
20040;SDS011;10181;48.072;9.884;2023-05-21T10:24:05;11.60;;;10.60;;
20040;SDS011;10181;48.072;9.884;2023-05-21T10:26:32;11.23;;;10.13;;
20040;SDS011;10181;48.072;9.884;2023-05-21T10:28:59;10.88;;;9.77;;
20040;SDS011;10181;48.072;9.884;2023-05-21T10:31:26;11.23;;;9.90;;
20040;SDS011;10181;48.072;9.884;2023-05-21T10:33:53;11.07;;;9.95;;
20040;SDS011;10181;48.072;9.884;2023-05-21T10:36:20;11.50;;;10.23;;
20040;SDS011;10181;48.072;9.884;2023-05-21T10:38:47;10.25;;;9.35;;
20040;SDS011;10181;48.072;9.884;2023-05-21T10:41:16;10.68;;;9.68;;
20040;SDS011;10181;48.072;9.884;2023-05-21T11:00:27;12.20;;;11.30;;
20040;SDS011;10181;48.072;9.884;2023-05-21T11:02:52;13.57;;;12.68;;
20040;SDS011;10181;48.072;9.884;2023-05-21T11:05:37;16.52;;;15.32;;
20040;SDS011;10181;48.072;9.884;2023-05-21T11:08:20;12.98;;;12.15;;
20040;SDS011;10181;48.072;9.884;2023-05-21T11:10:50;11.70;;;10.23;;
20040;SDS011;10181;48.072;9.884;2023-05-21T11:13:21;11.20;;;9.20;;
20040;SDS011;10181;48.072;9.884;2023-05-21T11:20:51;12.95;;;12.13;;
20040;SDS011;10181;48.072;9.884;2023-05-21T11:23:17;13.95;;;12.95;;
20040;SDS011;10181;48.072;9.884;2023-05-21T11:25:50;9.15;;;8.35;;
20040;SDS011;10181;48.072;9.884;2023-05-21T11:28:31;9.82;;;8.95;;
20040;SDS011;10181;48.072;9.884;2023-05-21T11:36:36;7.38;;;6.82;;
20040;SDS011;10181;48.072;9.884;2023-05-21T11:39:07;7.32;;;6.80;;
20040;SDS011;10181;48.072;9.884;2023-05-21T11:41:50;8.43;;;7.72;;
20040;SDS011;10181;48.072;9.884;2023-05-21T11:44:38;7.90;;;7.30;;
20040;SDS011;10181;48.072;9.884;2023-05-21T11:47:05;11.10;;;10.20;;
20040;SDS011;10181;48.072;9.884;2023-05-21T11:49:32;9.63;;;8.93;;
20040;SDS011;10181;48.072;9.884;2023-05-21T11:51:58;10.52;;;9.68;;
20040;SDS011;10181;48.072;9.884;2023-05-21T11:54:25;11.50;;;10.38;;
20040;SDS011;10181;48.072;9.884;2023-05-21T11:56:53;10.73;;;9.85;;
20040;SDS011;10181;48.072;9.884;2023-05-21T11:59:19;9.30;;;8.40;;
20040;SDS011;10181;48.072;9.884;2023-05-21T12:01:44;10.13;;;9.30;;
20040;SDS011;10181;48.072;9.884;2023-05-21T12:04:10;14.65;;;13.25;;
20040;SDS011;10181;48.072;9.884;2023-05-21T12:06:41;12.10;;;10.90;;
20040;SDS011;10181;48.072;9.884;2023-05-21T12:09:08;11.32;;;10.40;;
20040;SDS011;10181;48.072;9.884;2023-05-21T12:11:36;11.27;;;10.25;;
20040;SDS011;10181;48.072;9.884;2023-05-21T12:14:05;11.30;;;10.30;;
20040;SDS011;10181;48.072;9.884;2023-05-21T12:16:34;12.98;;;12.27;;
20040;SDS011;10181;48.072;9.884;2023-05-21T12:19:03;10.32;;;9.73;;
20040;SDS011;10181;48.072;9.884;2023-05-21T12:21:30;8.07;;;7.57;;
20040;SDS011;10181;48.072;9.884;2023-05-21T12:23:56;8.43;;;7.82;;
20040;SDS011;10181;48.072;9.884;2023-05-21T12:26:23;8.88;;;8.38;;
20040;SDS011;10181;48.072;9.884;2023-05-21T12:28:53;7.95;;;7.45;;
20040;SDS011;10181;48.072;9.884;2023-05-21T12:31:20;7.70;;;7.28;;
20040;SDS011;10181;48.072;9.884;2023-05-21T12:33:47;7.65;;;7.15;;
20040;SDS011;10181;48.072;9.884;2023-05-21T12:36:48;7.85;;;7.38;;
20040;SDS011;10181;48.072;9.884;2023-05-21T12:39:10;7.97;;;7.47;;
20040;SDS011;10181;48.072;9.884;2023-05-21T12:41:35;6.53;;;6.13;;
20040;SDS011;10181;48.072;9.884;2023-05-21T12:44:01;10.18;;;9.65;;
20040;SDS011;10181;48.072;9.884;2023-05-21T12:46:29;9.40;;;9.00;;
20040;SDS011;10181;48.072;9.884;2023-05-21T12:48:55;14.07;;;13.38;;
20040;SDS011;10181;48.072;9.884;2023-05-21T12:51:21;10.38;;;9.60;;
20040;SDS011;10181;48.072;9.884;2023-05-21T12:53:47;12.90;;;12.23;;
20040;SDS011;10181;48.072;9.884;2023-05-21T12:56:13;16.55;;;15.75;;
20040;SDS011;10181;48.072;9.884;2023-05-21T12:58:40;11.32;;;10.82;;
20040;SDS011;10181;48.072;9.884;2023-05-21T13:03:39;12.27;;;11.60;;
20040;SDS011;10181;48.072;9.884;2023-05-21T13:06:06;9.90;;;9.40;;
20040;SDS011;10181;48.072;9.884;2023-05-21T13:08:33;13.98;;;13.40;;
20040;SDS011;10181;48.072;9.884;2023-05-21T13:11:00;8.02;;;7.63;;
20040;SDS011;10181;48.072;9.884;2023-05-21T13:13:26;11.20;;;10.70;;
20040;SDS011;10181;48.072;9.884;2023-05-21T13:15:51;9.02;;;8.52;;
20040;SDS011;10181;48.072;9.884;2023-05-21T13:18:18;7.40;;;7.10;;
20040;SDS011;10181;48.072;9.884;2023-05-21T13:20:45;9.23;;;8.85;;
20040;SDS011;10181;48.072;9.884;2023-05-21T13:23:11;13.55;;;13.05;;
20040;SDS011;10181;48.072;9.884;2023-05-21T13:25:37;4.55;;;4.35;;
20040;SDS011;10181;48.072;9.884;2023-05-21T13:28:03;9.50;;;9.10;;
20040;SDS011;10181;48.072;9.884;2023-05-21T13:30:29;14.63;;;14.13;;
20040;SDS011;10181;48.072;9.884;2023-05-21T13:32:57;8.25;;;4.70;;
20040;SDS011;10181;48.072;9.884;2023-05-21T13:35:22;5.85;;;5.65;;
20040;SDS011;10181;48.072;9.884;2023-05-21T13:37:48;6.63;;;6.22;;
20040;SDS011;10181;48.072;9.884;2023-05-21T13:40:14;5.35;;;5.13;;
20040;SDS011;10181;48.072;9.884;2023-05-21T13:42:40;3.70;;;3.50;;
20040;SDS011;10181;48.072;9.884;2023-05-21T13:45:07;5.00;;;4.60;;
20040;SDS011;10181;48.072;9.884;2023-05-21T13:47:35;3.67;;;3.47;;
20040;SDS011;10181;48.072;9.884;2023-05-21T13:50:01;4.05;;;3.85;;
20040;SDS011;10181;48.072;9.884;2023-05-21T13:52:26;3.67;;;3.38;;
20040;SDS011;10181;48.072;9.884;2023-05-21T13:54:52;3.92;;;3.78;;
20040;SDS011;10181;48.072;9.884;2023-05-21T13:57:18;2.92;;;2.83;;
20040;SDS011;10181;48.072;9.884;2023-05-21T13:59:44;3.50;;;3.30;;
20040;SDS011;10181;48.072;9.884;2023-05-21T14:02:09;3.20;;;3.10;;
20040;SDS011;10181;48.072;9.884;2023-05-21T14:04:35;4.22;;;4.03;;
20040;SDS011;10181;48.072;9.884;2023-05-21T14:07:02;5.75;;;5.55;;
20040;SDS011;10181;48.072;9.884;2023-05-21T14:09:28;4.82;;;4.63;;
20040;SDS011;10181;48.072;9.884;2023-05-21T14:11:54;3.22;;;3.03;;
20040;SDS011;10181;48.072;9.884;2023-05-21T14:14:21;3.10;;;3.00;;
20040;SDS011;10181;48.072;9.884;2023-05-21T14:16:48;4.50;;;4.30;;
20040;SDS011;10181;48.072;9.884;2023-05-21T14:19:14;4.38;;;4.18;;
20040;SDS011;10181;48.072;9.884;2023-05-21T14:21:40;3.33;;;3.17;;
20040;SDS011;10181;48.072;9.884;2023-05-21T14:24:06;4.15;;;3.95;;
20040;SDS011;10181;48.072;9.884;2023-05-21T14:26:32;4.68;;;4.47;;
20040;SDS011;10181;48.072;9.884;2023-05-21T14:28:57;3.75;;;3.55;;
20040;SDS011;10181;48.072;9.884;2023-05-21T14:31:23;4.00;;;3.80;;
20040;SDS011;10181;48.072;9.884;2023-05-21T14:33:49;3.20;;;3.03;;
20040;SDS011;10181;48.072;9.884;2023-05-21T14:36:15;16.35;;;15.80;;
20040;SDS011;10181;48.072;9.884;2023-05-21T14:38:41;16.55;;;16.05;;
20040;SDS011;10181;48.072;9.884;2023-05-21T14:41:07;3.90;;;3.70;;
20040;SDS011;10181;48.072;9.884;2023-05-21T14:43:33;4.03;;;3.83;;
20040;SDS011;10181;48.072;9.884;2023-05-21T14:45:59;4.72;;;4.53;;
20040;SDS011;10181;48.072;9.884;2023-05-21T14:48:25;3.17;;;3.08;;
20040;SDS011;10181;48.072;9.884;2023-05-21T14:50:51;3.95;;;3.75;;
20040;SDS011;10181;48.072;9.884;2023-05-21T14:53:17;3.05;;;2.95;;
20040;SDS011;10181;48.072;9.884;2023-05-21T14:55:44;3.65;;;3.45;;
20040;SDS011;10181;48.072;9.884;2023-05-21T14:58:10;3.83;;;3.63;;
20040;SDS011;10181;48.072;9.884;2023-05-21T15:00:36;3.45;;;3.25;;
20040;SDS011;10181;48.072;9.884;2023-05-21T15:03:03;13.73;;;13.18;;
20040;SDS011;10181;48.072;9.884;2023-05-21T15:05:29;2.97;;;2.80;;
20040;SDS011;10181;48.072;9.884;2023-05-21T15:07:56;8.38;;;7.97;;